Time;durP1;ratioP1;P1;durP2;ratioP2;P2;SDS_P1;SDS_P2;PMS_P1;PMS_P2;Temp;Humidity;BMP_temperature;BMP_pressure;BME280_temperature;BME280_humidity;BME280_pressure;Samples;Min_cycle;Max_cycle;Signal;HPM_P1;HPM_P2
2021/03/14 00:00:48;;;;;;;0.47;0.10;;;4.30;77.90;;;;;;5053958;28;20028;-75
2021/03/14 00:03:17;;;;;;;0.57;0.28;;;4.30;78.70;;;;;;5054312;28;20025;-76
2021/03/14 00:05:44;;;;;;;1.65;0.30;;;4.30;77.80;;;;;;5055149;28;20052;-74
2021/03/14 00:08:11;;;;;;;1.10;0.30;;;4.20;78.10;;;;;;5053732;28;20103;-74
2021/03/14 00:10:53;;;;;;;1.27;0.17;;;4.20;78.20;;;;;;5058023;28;20018;-74
2021/03/14 00:13:26;;;;;;;0.90;0.40;;;4.20;78.40;;;;;;5048351;28;20059;-74
2021/03/14 00:15:52;;;;;;;1.65;0.38;;;4.20;79.00;;;;;;5061627;28;20028;-77
2021/03/14 00:18:19;;;;;;;3.30;0.65;;;4.30;78.80;;;;;;5060052;28;20490;-76
2021/03/14 00:20:45;;;;;;;0.47;0.20;;;4.20;78.70;;;;;;5056434;28;20098;-74
2021/03/14 00:23:11;;;;;;;1.88;0.28;;;4.20;78.80;;;;;;5054091;28;20484;-76
2021/03/14 00:25:37;;;;;;;2.17;0.52;;;4.10;78.90;;;;;;5053492;28;20020;-76
2021/03/14 00:28:04;;;;;;;1.40;0.35;;;4.10;79.10;;;;;;5053964;28;20021;-76
2021/03/14 00:30:30;;;;;;;0.90;0.20;;;4.10;78.40;;;;;;5053603;28;20021;-76
2021/03/14 00:32:56;;;;;;;1.10;0.20;;;4.10;78.70;;;;;;5052406;28;20099;-76
2021/03/14 00:35:22;;;;;;;0.80;0.20;;;4.00;79.10;;;;;;5053456;28;20104;-75
2021/03/14 00:37:49;;;;;;;1.48;0.57;;;4.00;80.00;;;;;;5053336;28;20115;-75
2021/03/14 00:40:15;;;;;;;0.75;0.20;;;3.90;80.70;;;;;;5053058;28;20103;-77
2021/03/14 00:42:40;;;;;;;0.55;0.20;;;3.90;80.60;;;;;;5052833;28;20056;-78
2021/03/14 00:45:08;;;;;;;4.13;0.50;;;3.90;80.50;;;;;;5052668;28;20100;-77
2021/03/14 00:47:35;;;;;;;0.35;0.20;;;3.90;80.10;;;;;;5052575;28;20032;-77
2021/03/14 00:50:01;;;;;;;0.50;0.20;;;3.90;80.40;;;;;;5035127;28;20032;-77
2021/03/14 00:52:27;;;;;;;0.30;0.10;;;3.90;80.40;;;;;;5052603;28;20033;-77
2021/03/14 00:54:52;;;;;;;1.80;0.30;;;3.90;80.00;;;;;;5052631;28;20071;-76
2021/03/14 00:57:18;;;;;;;0.90;0.55;;;3.80;80.70;;;;;;5052583;28;20112;-78
2021/03/14 00:59:43;;;;;;;2.13;0.20;;;3.80;81.00;;;;;;5052633;28;20025;-75
2021/03/14 01:02:09;;;;;;;1.65;0.30;;;3.70;81.90;;;;;;5052550;28;20473;-76
2021/03/14 01:04:35;;;;;;;3.40;0.20;;;3.60;82.40;;;;;;5052398;28;20028;-76
2021/03/14 01:07:00;;;;;;;0.88;0.30;;;3.60;82.50;;;;;;5052472;28;20029;-76
2021/03/14 01:09:26;;;;;;;1.02;0.30;;;3.60;82.00;;;;;;5052764;28;20036;-76
2021/03/14 01:11:52;;;;;;;6.60;0.73;;;3.60;82.00;;;;;;5034921;28;20028;-77
2021/03/14 01:14:17;;;;;;;0.10;0.10;;;3.60;81.90;;;;;;5052961;28;20055;-78
2021/03/14 01:16:43;;;;;;;1.20;0.30;;;3.60;82.70;;;;;;5053007;28;20043;-78
2021/03/14 01:19:08;;;;;;;2.75;0.30;;;3.60;81.60;;;;;;5053024;28;20032;-76
2021/03/14 01:21:34;;;;;;;2.30;0.40;;;3.60;81.40;;;;;;5053092;28;20489;-77
2021/03/14 01:24:00;;;;;;;0.82;0.30;;;3.60;80.80;;;;;;5034713;28;20490;-76
2021/03/14 01:26:26;;;;;;;1.77;0.30;;;3.60;80.50;;;;;;5052319;28;20021;-75
2021/03/14 01:28:51;;;;;;;1.00;0.40;;;3.60;80.30;;;;;;5052346;28;20032;-75
2021/03/14 01:31:17;;;;;;;1.02;0.30;;;3.60;80.20;;;;;;5052138;28;20025;-75
2021/03/14 01:33:43;;;;;;;1.80;0.30;;;3.50;81.10;;;;;;5052038;28;20029;-75
2021/03/14 01:36:09;;;;;;;1.02;0.45;;;3.50;82.00;;;;;;5052033;28;20096;-75
2021/03/14 01:38:34;;;;;;;2.00;0.85;;;3.50;82.70;;;;;;5051928;28;20545;-75
2021/03/14 01:41:01;;;;;;;0.55;0.40;;;3.50;82.50;;;;;;5051963;28;20075;-76
2021/03/14 01:43:30;;;;;;;2.55;0.40;;;3.40;82.20;;;;;;5051849;28;20055;-75
2021/03/14 01:45:56;;;;;;;1.48;0.28;;;3.50;82.00;;;;;;5055616;28;20055;-76
2021/03/14 01:48:25;;;;;;;3.05;0.45;;;3.50;81.20;;;;;;5055789;28;20025;-75
2021/03/14 01:50:51;;;;;;;1.05;0.32;;;3.50;80.70;;;;;;5055499;28;20020;-75
2021/03/14 01:53:18;;;;;;;2.97;0.55;;;3.50;81.00;;;;;;5055748;28;20355;-74
2021/03/14 01:55:44;;;;;;;0.50;0.30;;;3.50;81.10;;;;;;5055614;28;20327;-74
2021/03/14 01:58:11;;;;;;;0.73;0.35;;;3.50;81.50;;;;;;5055486;28;20498;-73
2021/03/14 02:00:37;;;;;;;2.03;0.50;;;3.50;82.00;;;;;;5055550;28;20021;-74
2021/03/14 02:03:02;;;;;;;2.17;0.40;;;3.40;81.80;;;;;;5055562;28;20025;-74
2021/03/14 02:05:28;;;;;;;0.75;0.30;;;3.40;82.30;;;;;;5055496;28;20052;-75
2021/03/14 02:07:55;;;;;;;1.73;0.30;;;3.50;82.50;;;;;;5055644;28;20082;-75
2021/03/14 02:10:25;;;;;;;1.40;0.40;;;3.50;83.40;;;;;;5037637;28;20028;-74
2021/03/14 02:12:56;;;;;;;1.65;0.52;;;3.50;83.00;;;;;;5055150;28;20104;-74
2021/03/14 02:15:23;;;;;;;0.60;0.30;;;3.50;82.60;;;;;;5037427;28;20038;-74
2021/03/14 02:17:50;;;;;;;1.92;0.30;;;3.50;82.70;;;;;;5055319;28;20040;-74
2021/03/14 02:20:19;;;;;;;1.75;0.20;;;3.40;83.00;;;;;;5055776;28;20052;-74
2021/03/14 02:22:48;;;;;;;1.88;0.10;;;3.40;82.90;;;;;;5055267;28;20036;-76
2021/03/14 02:25:22;;;;;;;2.65;0.20;;;3.40;82.60;;;;;;5055201;28;20021;-74
2021/03/14 02:27:48;;;;;;;0.45;0.30;;;3.30;83.00;;;;;;5055190;28;20068;-73
2021/03/14 02:30:15;;;;;;;0.20;0.20;;;3.40;83.60;;;;;;5055209;28;20377;-74
2021/03/14 02:32:42;;;;;;;0.47;0.47;;;3.30;83.70;;;;;;5037268;28;20108;-74
2021/03/14 02:35:09;;;;;;;3.35;0.63;;;3.30;84.40;;;;;;5055180;28;20052;-74
2021/03/14 02:37:36;;;;;;;1.30;0.60;;;3.40;85.20;;;;;;5054971;28;20033;-74
2021/03/14 02:40:05;;;;;;;0.50;0.25;;;3.30;86.20;;;;;;5047038;28;20033;-74
2021/03/14 02:42:31;;;;;;;1.30;0.30;;;3.10;86.30;;;;;;5054943;28;20029;-74
2021/03/14 02:44:58;;;;;;;0.50;0.10;;;2.90;86.70;;;;;;5054977;28;20099;-74
2021/03/14 02:47:25;;;;;;;0.28;0.13;;;2.70;87.60;;;;;;5054973;28;20071;-75
2021/03/14 02:49:51;;;;;;;1.27;0.20;;;2.60;88.20;;;;;;5037123;28;20159;-75
2021/03/14 02:52:23;;;;;;;0.30;0.30;;;2.50;88.70;;;;;;5054908;28;20523;-75
2021/03/14 02:54:50;;;;;;;1.42;0.57;;;2.40;89.10;;;;;;5036885;28;20029;-75
2021/03/14 02:57:21;;;;;;;0.52;0.28;;;2.30;89.70;;;;;;5053852;28;20037;-76
2021/03/14 02:59:54;;;;;;;1.75;0.20;;;2.20;90.20;;;;;;5036938;28;20086;-75
2021/03/14 03:02:21;;;;;;;2.22;0.20;;;2.20;90.40;;;;;;5036753;28;20056;-74
2021/03/14 03:04:49;;;;;;;1.67;0.17;;;2.20;90.10;;;;;;5054720;28;20017;-75
2021/03/14 03:07:19;;;;;;;3.40;0.10;;;2.20;89.70;;;;;;5054599;28;20029;-74
2021/03/14 03:09:47;;;;;;;0.30;0.10;;;2.20;89.60;;;;;;5054480;28;20478;-75
2021/03/14 03:12:15;;;;;;;0.32;0.20;;;2.30;89.60;;;;;;5054419;28;20021;-74
2021/03/14 03:14:42;;;;;;;1.25;0.30;;;2.30;88.70;;;;;;5036291;28;20045;-74
2021/03/14 03:17:08;;;;;;;1.02;0.17;;;2.30;87.90;;;;;;5054331;28;20021;-74
2021/03/14 03:19:35;;;;;;;2.17;0.28;;;2.40;87.70;;;;;;5054447;28;20025;-75
2021/03/14 03:22:02;;;;;;;0.45;0.20;;;2.50;87.10;;;;;;5054346;28;20070;-75
2021/03/14 03:24:27;;;;;;;0.82;0.10;;;2.60;86.70;;;;;;5054388;28;20040;-75
2021/03/14 03:26:53;;;;;;;1.40;0.28;;;2.60;86.20;;;;;;5054623;28;20036;-73
2021/03/14 03:29:19;;;;;;;0.68;0.20;;;2.60;85.90;;;;;;5056095;28;20032;-75
2021/03/14 03:31:46;;;;;;;1.33;0.20;;;2.50;86.10;;;;;;5075820;28;20013;-75
2021/03/14 03:34:12;;;;;;;0.30;0.22;;;2.50;86.40;;;;;;5055875;28;20056;-77
2021/03/14 03:36:38;;;;;;;0.85;0.10;;;2.60;86.20;;;;;;5056703;28;20083;-74
2021/03/14 03:39:09;;;;;;;1.95;0.30;;;2.60;86.00;;;;;;5054524;28;20028;-74
2021/03/14 03:41:43;;;;;;;1.23;0.25;;;2.70;86.20;;;;;;5054019;28;20104;-76
2021/03/14 03:44:09;;;;;;;1.08;0.43;;;2.70;86.10;;;;;;5053919;28;20025;-75
2021/03/14 03:46:35;;;;;;;0.90;0.43;;;2.80;86.20;;;;;;5053790;28;20032;-73
2021/03/14 03:49:01;;;;;;;2.67;1.20;;;2.90;86.40;;;;;;5053872;28;20032;-73
2021/03/14 03:51:29;;;;;;;1.83;1.00;;;3.00;86.40;;;;;;5053580;28;20021;-74
2021/03/14 03:53:57;;;;;;;1.30;0.32;;;3.00;86.10;;;;;;5053555;28;20104;-73
2021/03/14 03:56:24;;;;;;;0.40;0.30;;;3.00;85.80;;;;;;5053388;28;20485;-74
2021/03/14 03:58:51;;;;;;;0.57;0.20;;;2.90;85.70;;;;;;5053353;28;20025;-74
2021/03/14 04:01:17;;;;;;;3.03;0.50;;;2.80;86.20;;;;;;5035473;28;20052;-75
2021/03/14 04:03:45;;;;;;;0.90;0.40;;;2.70;86.90;;;;;;5053313;28;20535;-74
2021/03/14 04:06:13;;;;;;;0.65;0.20;;;2.70;87.30;;;;;;5053340;28;20025;-74
2021/03/14 04:08:40;;;;;;;0.38;0.25;;;2.60;87.30;;;;;;5052999;28;20031;-74
2021/03/14 04:11:12;;;;;;;0.32;0.10;;;2.60;87.50;;;;;;5053241;28;20062;-74
2021/03/14 04:13:39;;;;;;;0.65;0.35;;;2.50;87.80;;;;;;5053148;28;20049;-74
2021/03/14 04:16:07;;;;;;;0.25;0.25;;;2.50;87.80;;;;;;5053404;28;20080;-75
2021/03/14 04:18:33;;;;;;;0.28;0.20;;;2.40;88.30;;;;;;5053415;28;20025;-74
2021/03/14 04:21:01;;;;;;;0.75;0.20;;;2.40;88.50;;;;;;5035454;28;20470;-74
2021/03/14 04:23:28;;;;;;;0.73;0.10;;;2.40;88.70;;;;;;5053253;28;20083;-75
2021/03/14 04:25:56;;;;;;;0.00;0.00;;;2.30;89.00;;;;;;5053172;28;20029;-74
2021/03/14 04:28:25;;;;;;;0.25;0.00;;;2.20;89.50;;;;;;5053235;28;20021;-77
2021/03/14 04:30:52;;;;;;;0.00;0.00;;;2.10;90.00;;;;;;5053031;28;20107;-75
2021/03/14 04:33:19;;;;;;;1.42;0.10;;;2.10;90.50;;;;;;5052964;28;20396;-76
2021/03/14 04:35:45;;;;;;;0.70;0.30;;;2.00;90.80;;;;;;5052830;28;20053;-76
2021/03/14 04:38:12;;;;;;;0.32;0.20;;;1.90;91.50;;;;;;5052974;28;20088;-76
2021/03/14 04:40:39;;;;;;;0.20;0.20;;;1.80;91.40;;;;;;5052838;28;20044;-76
2021/03/14 04:43:05;;;;;;;1.77;0.10;;;1.70;91.80;;;;;;5052857;28;20392;-75
2021/03/14 04:45:32;;;;;;;0.75;0.60;;;1.80;91.70;;;;;;5052796;28;20096;-74
2021/03/14 04:47:57;;;;;;;1.60;0.40;;;1.90;90.90;;;;;;5052768;28;20051;-75
2021/03/14 04:50:26;;;;;;;0.85;0.20;;;1.80;90.50;;;;;;5052753;28;20474;-75
2021/03/14 04:52:55;;;;;;;3.95;0.30;;;1.90;90.50;;;;;;5052804;28;20028;-75
2021/03/14 04:55:21;;;;;;;1.50;0.38;;;2.00;90.00;;;;;;5052712;28;20039;-75
2021/03/14 04:57:48;;;;;;;3.33;1.05;;;1.90;89.40;;;;;;5052741;28;20568;-75
2021/03/14 05:00:16;;;;;;;0.55;0.20;;;1.90;88.90;;;;;;5052573;28;20039;-75
2021/03/14 05:02:44;;;;;;;0.30;0.10;;;1.90;89.00;;;;;;5034698;28;20033;-76
2021/03/14 05:05:12;;;;;;;0.38;0.10;;;2.00;88.40;;;;;;5052615;28;20025;-75
2021/03/14 05:07:41;;;;;;;3.05;1.50;;;2.00;88.20;;;;;;5052557;28;20086;-75
2021/03/14 05:10:10;;;;;;;2.53;0.98;;;2.00;88.10;;;;;;5052629;28;20149;-75
2021/03/14 05:12:38;;;;;;;3.83;1.63;;;2.00;87.90;;;;;;5034784;28;20350;-75
2021/03/14 05:15:05;;;;;;;0.70;0.55;;;2.10;88.00;;;;;;5014877;28;20041;-75
2021/03/14 05:17:32;;;;;;;1.35;0.65;;;2.10;87.20;;;;;;5032488;28;20365;-73
2021/03/14 05:19:58;;;;;;;0.50;0.30;;;2.20;87.00;;;;;;5034652;28;20025;-75
2021/03/14 05:22:24;;;;;;;0.70;0.40;;;2.20;86.40;;;;;;5036506;28;20033;-75
2021/03/14 05:24:50;;;;;;;0.20;0.20;;;2.30;86.50;;;;;;5036358;28;20021;-74
2021/03/14 05:27:17;;;;;;;1.17;0.20;;;2.30;87.30;;;;;;5036397;28;20136;-75
2021/03/14 05:29:45;;;;;;;0.30;0.10;;;2.30;86.30;;;;;;5036348;28;20441;-75
2021/03/14 05:32:11;;;;;;;1.17;0.20;;;2.40;86.10;;;;;;5018660;28;20047;-75
2021/03/14 05:34:37;;;;;;;1.13;0.40;;;2.40;85.80;;;;;;5036723;28;20484;-76
2021/03/14 05:37:02;;;;;;;1.55;0.60;;;2.40;85.70;;;;;;5036665;28;20046;-76
2021/03/14 05:39:28;;;;;;;1.25;0.30;;;2.50;85.10;;;;;;5018919;28;20048;-75
2021/03/14 05:41:54;;;;;;;0.98;0.40;;;2.40;84.70;;;;;;5036592;28;20034;-76
2021/03/14 05:44:21;;;;;;;0.85;0.40;;;2.50;84.50;;;;;;5036568;28;20147;-76
2021/03/14 05:46:47;;;;;;;4.57;1.80;;;2.50;85.10;;;;;;5036614;28;20029;-76
2021/03/14 05:49:12;;;;;;;3.25;0.40;;;2.50;84.00;;;;;;5018817;28;20051;-76
2021/03/14 05:51:50;;;;;;;3.75;0.38;;;2.50;83.30;;;;;;5036315;28;20038;-76
2021/03/14 05:54:16;;;;;;;0.93;0.35;;;2.50;83.20;;;;;;5036659;28;20018;-75
2021/03/14 05:56:48;;;;;;;2.72;0.60;;;2.50;83.40;;;;;;5036262;28;20480;-75
2021/03/14 05:59:17;;;;;;;2.65;0.45;;;2.50;83.70;;;;;;5036465;28;20034;-75
2021/03/14 06:01:51;;;;;;;2.13;0.60;;;2.40;83.70;;;;;;5036180;28;20489;-76
2021/03/14 06:04:19;;;;;;;0.82;0.30;;;2.50;84.10;;;;;;5036337;28;20033;-75
2021/03/14 06:06:46;;;;;;;1.65;0.50;;;2.50;84.50;;;;;;5036095;28;20037;-75
2021/03/14 06:09:12;;;;;;;7.80;0.80;;;2.60;84.00;;;;;;5036285;28;20462;-75
2021/03/14 06:11:38;;;;;;;5.30;0.50;;;2.60;83.10;;;;;;5036071;28;20113;-75
2021/03/14 06:14:04;;;;;;;2.67;0.60;;;2.60;83.10;;;;;;5029536;28;20045;-75
2021/03/14 06:16:29;;;;;;;5.05;1.25;;;2.60;83.00;;;;;;5055875;28;20063;-75
2021/03/14 06:18:56;;;;;;;3.42;0.80;;;2.60;82.90;;;;;;5055930;28;20039;-75
2021/03/14 06:21:31;;;;;;;1.65;0.38;;;2.60;82.90;;;;;;5055910;28;20108;-75
2021/03/14 06:24:02;;;;;;;6.70;1.83;;;2.60;82.90;;;;;;5055812;28;20521;-74
2021/03/14 06:26:40;;;;;;;4.13;0.90;;;2.60;83.20;;;;;;5055764;28;20021;-74
2021/03/14 06:29:18;;;;;;;5.90;1.05;;;2.70;83.20;;;;;;5055826;28;20048;-75
2021/03/14 06:31:45;;;;;;;3.25;0.70;;;2.60;83.70;;;;;;5055565;28;20017;-75
2021/03/14 06:34:30;;;;;;;1.42;0.80;;;2.50;84.40;;;;;;5055620;28;20108;-75
2021/03/14 06:37:07;;;;;;;3.30;1.02;;;2.50;84.70;;;;;;5055639;28;20039;-74
2021/03/14 06:39:36;;;;;;;5.63;1.00;;;2.50;84.90;;;;;;5055514;28;20033;-74
2021/03/14 06:42:02;;;;;;;4.40;1.60;;;2.60;84.60;;;;;;5055512;28;20398;-74
2021/03/14 06:44:32;;;;;;;7.57;1.25;;;2.60;84.30;;;;;;5037543;28;20116;-75
2021/03/14 06:46:59;;;;;;;3.17;0.75;;;2.50;84.30;;;;;;5055497;28;20025;-75
2021/03/14 06:49:26;;;;;;;1.92;0.77;;;2.50;83.10;;;;;;5055416;28;20081;-74
2021/03/14 06:51:57;;;;;;;1.80;0.32;;;2.50;83.10;;;;;;5055328;28;20021;-74
2021/03/14 06:54:31;;;;;;;5.85;0.90;;;2.60;82.40;;;;;;5055332;28;20021;-74
2021/03/14 06:57:11;;;;;;;4.95;1.33;;;2.40;82.70;;;;;;5055128;28;20041;-75
2021/03/14 06:59:43;;;;;;;2.63;0.88;;;2.50;82.00;;;;;;5055112;28;20485;-74
2021/03/14 07:02:20;;;;;;;0.95;0.60;;;2.70;81.70;;;;;;5055130;28;20029;-74
2021/03/14 07:04:53;;;;;;;1.85;0.57;;;2.70;81.20;;;;;;5037150;28;20498;-73
2021/03/14 07:07:24;;;;;;;1.10;0.40;;;2.70;80.40;;;;;;5037121;28;20033;-75
2021/03/14 07:09:57;;;;;;;4.15;0.70;;;2.30;79.70;;;;;;5054782;28;20028;-75
2021/03/14 07:12:31;;;;;;;7.18;1.23;;;2.30;80.20;;;;;;5054782;28;20075;-75
2021/03/14 07:14:57;;;;;;;3.92;0.70;;;2.30;80.00;;;;;;5054609;28;20052;-75
2021/03/14 07:17:31;;;;;;;4.75;0.85;;;2.40;80.00;;;;;;5054592;28;20525;-76
2021/03/14 07:19:58;;;;;;;2.63;0.77;;;2.50;79.70;;;;;;5054609;28;20035;-76
2021/03/14 07:22:25;;;;;;;2.75;0.70;;;2.50;79.30;;;;;;5054653;28;20029;-76
2021/03/14 07:24:50;;;;;;;3.90;1.33;;;2.50;78.50;;;;;;5054543;28;20025;-75
2021/03/14 07:27:22;;;;;;;3.67;0.88;;;2.60;78.90;;;;;;5036838;28;20377;-76
2021/03/14 07:29:49;;;;;;;11.25;1.20;;;2.60;78.80;;;;;;5036556;28;20029;-74
2021/03/14 07:32:15;;;;;;;5.65;0.95;;;2.60;78.80;;;;;;5054169;28;20051;-73
2021/03/14 07:34:41;;;;;;;2.45;0.90;;;2.60;79.00;;;;;;5036323;28;20024;-74
2021/03/14 07:37:06;;;;;;;4.78;1.00;;;2.70;78.90;;;;;;5054311;28;20135;-75
2021/03/14 07:39:32;;;;;;;3.78;1.00;;;2.80;78.80;;;;;;5054292;28;20029;-74
2021/03/14 07:41:58;;;;;;;1.48;0.98;;;2.90;78.10;;;;;;5052750;28;20032;-74
2021/03/14 07:44:25;;;;;;;3.88;1.45;;;2.90;77.60;;;;;;5053875;28;20539;-75
2021/03/14 07:46:51;;;;;;;2.15;1.10;;;3.00;77.20;;;;;;5036249;28;20021;-74
2021/03/14 07:49:19;;;;;;;4.93;1.10;;;3.30;76.60;;;;;;5070993;28;20033;-74
2021/03/14 07:51:50;;;;;;;1.42;0.93;;;3.30;76.40;;;;;;5070418;28;20025;-76
2021/03/14 07:54:44;;;;;;;3.10;0.63;;;3.40;75.20;;;;;;5056535;28;20037;-75
2021/03/14 07:57:11;;;;;;;3.63;0.80;;;3.70;74.20;;;;;;5054369;28;20098;-74
2021/03/14 07:59:37;;;;;;;2.67;0.80;;;3.80;73.40;;;;;;5036408;28;20351;-74
2021/03/14 08:02:23;;;;;;;2.75;1.05;;;3.90;72.50;;;;;;5054138;28;20025;-76
2021/03/14 08:05:01;;;;;;;4.05;1.00;;;3.90;74.10;;;;;;5028813;28;20041;-77
2021/03/14 08:07:38;;;;;;;1.95;0.88;;;4.10;73.50;;;;;;5036511;28;20029;-78
2021/03/14 08:10:06;;;;;;;1.77;0.65;;;4.10;73.10;;;;;;5054042;28;20025;-77
2021/03/14 08:12:42;;;;;;;5.93;0.90;;;4.30;72.40;;;;;;5035269;28;20064;-74
2021/03/14 08:15:29;;;;;;;3.92;0.95;;;4.20;71.60;;;;;;5035987;28;20139;-74
2021/03/14 08:18:01;;;;;;;4.35;0.95;;;4.20;72.40;;;;;;5035525;28;20045;-77
2021/03/14 08:20:45;;;;;;;4.30;0.95;;;4.30;71.20;;;;;;5035694;28;20024;-77
2021/03/14 08:23:18;;;;;;;7.45;1.15;;;4.30;70.00;;;;;;5035682;28;20025;-75
2021/03/14 08:25:46;;;;;;;3.88;0.60;;;4.40;75.00;;;;;;5035462;28;20031;-76
2021/03/14 08:28:25;;;;;;;2.25;0.60;;;4.90;75.10;;;;;;5035592;28;20024;-76
2021/03/14 08:30:55;;;;;;;3.33;0.60;;;5.50;73.10;;;;;;5035407;28;20124;-77
2021/03/14 08:33:25;;;;;;;1.65;0.30;;;5.90;71.10;;;;;;5053355;28;20108;-77
2021/03/14 08:36:02;;;;;;;1.70;0.60;;;6.00;67.20;;;;;;5035415;28;20108;-76
2021/03/14 08:38:41;;;;;;;5.13;0.68;;;6.30;66.60;;;;;;5035222;28;20401;-77
2021/03/14 08:44:36;;;;;;;3.30;0.93;;;6.60;64.00;;;;;;5325989;23;20107;-76
2021/03/14 08:47:06;;;;;;;1.40;0.40;;;6.80;65.20;;;;;;5035278;28;20025;-77
2021/03/14 08:49:33;;;;;;;2.92;0.47;;;6.90;61.10;;;;;;5034966;28;20070;-77
2021/03/14 08:51:59;;;;;;;1.30;0.40;;;6.60;60.60;;;;;;5052848;28;20125;-76
2021/03/14 08:54:33;;;;;;;4.93;0.60;;;6.20;63.40;;;;;;5034063;28;20493;-76
2021/03/14 08:57:02;;;;;;;2.38;0.50;;;6.40;63.90;;;;;;5052751;28;20040;-76
2021/03/14 08:59:29;;;;;;;4.88;0.50;;;6.70;63.50;;;;;;5034468;28;20029;-76
2021/03/14 09:01:57;;;;;;;1.52;0.75;;;6.80;61.60;;;;;;5034803;28;20416;-76
2021/03/14 09:04:29;;;;;;;2.22;1.05;;;7.10;62.40;;;;;;5034775;28;20025;-76
2021/03/14 09:07:09;;;;;;;3.08;1.05;;;7.50;60.30;;;;;;5034709;28;20024;-75
2021/03/14 09:09:35;;;;;;;0.82;0.35;;;7.60;59.60;;;;;;5052670;28;20029;-77
2021/03/14 09:12:06;;;;;;;1.55;0.68;;;8.10;60.80;;;;;;5034948;28;20025;-77
2021/03/14 09:14:32;;;;;;;2.78;1.45;;;8.40;58.70;;;;;;5052284;28;20059;-76
2021/03/14 09:17:24;;;;;;;3.03;0.60;;;7.70;56.40;;;;;;5034641;28;20029;-76
2021/03/14 09:19:52;;;;;;;2.05;0.88;;;7.50;58.60;;;;;;5032414;28;20072;-76
2021/03/14 09:22:29;;;;;;;4.57;1.95;;;7.40;58.50;;;;;;5034598;28;20047;-76
2021/03/14 09:24:59;;;;;;;2.95;0.73;;;7.00;59.20;;;;;;5052579;28;20024;-76
2021/03/14 09:27:27;;;;;;;2.45;0.52;;;6.50;59.60;;;;;;5034699;28;20478;-75
2021/03/14 09:30:00;;;;;;;3.10;0.95;;;6.50;62.30;;;;;;5052638;28;20539;-75
2021/03/14 09:32:31;;;;;;;3.05;0.63;;;6.80;62.30;;;;;;5052931;28;20021;-76
2021/03/14 09:35:16;;;;;;;1.92;0.60;;;7.10;62.30;;;;;;5052554;28;20029;-77
2021/03/14 09:37:42;;;;;;;3.87;0.80;;;7.30;63.10;;;;;;5034574;28;20493;-77
2021/03/14 09:40:21;;;;;;;4.00;0.70;;;7.90;60.30;;;;;;5052526;28;20032;-75
2021/03/14 09:45:24;;;;;;;2.65;0.60;;;7.30;57.20;;;;;;5254761;23;20060;-74
2021/03/14 09:48:36;;;;;;;7.35;0.95;;;6.90;57.60;;;;;;5052319;28;20086;-75
2021/03/14 09:51:09;;;;;;;2.15;0.63;;;7.20;59.10;;;;;;5034135;28;20029;-73
2021/03/14 09:53:36;;;;;;;4.88;0.88;;;7.10;57.30;;;;;;5034382;28;20033;-75
2021/03/14 09:56:13;;;;;;;1.42;0.65;;;6.60;57.30;;;;;;5052356;28;20440;-72
2021/03/14 09:58:39;;;;;;;1.65;0.47;;;6.10;57.00;;;;;;5052164;28;20396;-74
2021/03/14 10:01:06;;;;;;;2.05;0.90;;;6.00;56.80;;;;;;5052247;28;20017;-74
2021/03/14 10:03:34;;;;;;;6.28;0.77;;;5.60;58.10;;;;;;5052106;28;20035;-72
2021/03/14 10:06:04;;;;;;;3.38;0.80;;;5.50;59.30;;;;;;5054715;28;20028;-73
2021/03/14 10:08:34;;;;;;;2.47;0.80;;;5.30;59.50;;;;;;5055750;28;20025;-72
2021/03/14 10:11:04;;;;;;;1.05;0.50;;;5.20;60.70;;;;;;5037972;28;20024;-73
2021/03/14 10:13:31;;;;;;;4.38;0.70;;;5.60;60.00;;;;;;5055843;28;20089;-74
2021/03/14 10:15:58;;;;;;;4.05;2.00;;;5.70;60.50;;;;;;5037898;28;20043;-72
2021/03/14 10:18:26;;;;;;;4.05;1.60;;;5.90;59.70;;;;;;5037807;28;20039;-73
2021/03/14 10:21:23;;;;;;;3.08;0.85;;;5.80;60.90;;;;;;5055816;28;20089;-73
2021/03/14 10:23:49;;;;;;;2.13;0.85;;;6.20;59.70;;;;;;5037760;28;20028;-73
2021/03/14 10:26:15;;;;;;;2.47;0.88;;;6.40;57.60;;;;;;5055681;28;20028;-73
2021/03/14 10:28:44;;;;;;;2.10;0.60;;;6.30;57.70;;;;;;5037597;28;20088;-73
2021/03/14 10:31:10;;;;;;;4.32;1.33;;;6.50;57.50;;;;;;5055582;28;20013;-73
2021/03/14 10:33:38;;;;;;;4.00;1.35;;;6.60;57.30;;;;;;5055357;28;20485;-71
2021/03/14 10:36:16;;;;;;;9.45;1.00;;;6.80;56.60;;;;;;5055484;28;20021;-72
2021/03/14 10:38:42;;;;;;;4.60;1.08;;;7.00;56.30;;;;;;5037554;28;20057;-73
2021/03/14 10:41:12;;;;;;;6.32;0.98;;;7.20;55.50;;;;;;5055229;28;20025;-73
2021/03/14 10:44:07;;;;;;;2.92;0.73;;;7.00;54.00;;;;;;5055316;28;20080;-73
2021/03/14 10:46:41;;;;;;;5.05;1.85;;;6.70;53.90;;;;;;5020252;28;20077;-74
2021/03/14 10:49:27;;;;;;;5.03;1.70;;;6.00;54.60;;;;;;5055244;28;20025;-73
2021/03/14 10:51:56;;;;;;;3.92;1.30;;;6.10;55.40;;;;;;5055228;28;20087;-73
2021/03/14 10:54:22;;;;;;;3.95;1.30;;;5.80;56.70;;;;;;5055210;28;20025;-73
2021/03/14 10:56:50;;;;;;;2.08;0.77;;;6.00;56.80;;;;;;5054878;28;20112;-73
2021/03/14 10:59:29;;;;;;;5.03;1.70;;;5.80;57.20;;;;;;5054923;28;20037;-73
2021/03/14 11:02:10;;;;;;;3.25;0.75;;;6.10;57.20;;;;;;5054968;28;20223;-73
2021/03/14 11:04:36;;;;;;;5.22;0.80;;;6.40;57.60;;;;;;5054828;28;20092;-72
2021/03/14 11:07:24;;;;;;;2.50;0.57;;;6.80;57.90;;;;;;5054825;28;20106;-72
2021/03/14 11:09:50;;;;;;;4.90;1.20;;;7.20;56.50;;;;;;5054884;28;20434;-73
2021/03/14 11:12:33;;;;;;;5.53;2.38;;;7.40;55.30;;;;;;5036828;28;20123;-73
2021/03/14 11:14:58;;;;;;;5.20;0.88;;;7.90;55.10;;;;;;5054727;28;20441;-73
2021/03/14 11:17:29;;;;;;;5.50;1.10;;;8.10;55.10;;;;;;5053733;28;20041;-73
2021/03/14 11:19:56;;;;;;;1.27;0.60;;;7.90;54.40;;;;;;5054720;28;20446;-73
2021/03/14 11:22:22;;;;;;;1.05;0.50;;;7.90;51.80;;;;;;5054670;28;20108;-73
2021/03/14 11:24:48;;;;;;;1.40;0.63;;;7.90;50.90;;;;;;5036426;28;20580;-72
2021/03/14 11:27:14;;;;;;;2.00;0.32;;;8.20;49.40;;;;;;5054467;28;20029;-74
2021/03/14 11:29:41;;;;;;;1.67;0.40;;;8.10;49.40;;;;;;5054487;28;20021;-71
2021/03/14 11:32:13;;;;;;;2.38;0.60;;;7.90;49.80;;;;;;5027030;28;20030;-74
2021/03/14 11:34:40;;;;;;;6.43;0.65;;;8.00;51.00;;;;;;5016768;28;20029;-72
2021/03/14 11:37:06;;;;;;;2.10;0.50;;;8.10;50.60;;;;;;5034501;28;20034;-74
2021/03/14 11:39:32;;;;;;;4.50;0.57;;;7.70;50.00;;;;;;5034347;28;20352;-73
2021/03/14 11:41:57;;;;;;;5.50;0.60;;;7.40;50.60;;;;;;5034349;28;20034;-75
2021/03/14 11:44:23;;;;;;;3.10;0.45;;;7.40;51.40;;;;;;5034305;28;20470;-72
2021/03/14 11:46:48;;;;;;;3.60;0.68;;;7.40;51.30;;;;;;5034122;28;20072;-74
2021/03/14 11:49:14;;;;;;;3.97;0.52;;;7.50;51.70;;;;;;5034191;28;20035;-74
2021/03/14 11:51:40;;;;;;;4.35;0.95;;;7.30;52.50;;;;;;5034063;28;20028;-73
2021/03/14 11:54:05;;;;;;;5.95;2.58;;;7.30;51.30;;;;;;5034109;28;20021;-73
2021/03/14 11:56:31;;;;;;;2.85;1.05;;;7.30;51.00;;;;;;5033729;28;20029;-72
2021/03/14 11:58:59;;;;;;;7.15;1.10;;;7.40;50.50;;;;;;5016100;28;20022;-72
2021/03/14 12:01:25;;;;;;;3.42;0.75;;;7.20;51.70;;;;;;5033906;28;20432;-73
2021/03/14 12:03:51;;;;;;;1.60;0.63;;;7.40;53.00;;;;;;5033867;28;20100;-73
2021/03/14 12:06:17;;;;;;;4.03;1.05;;;7.30;52.60;;;;;;5033890;28;20026;-72
2021/03/14 12:08:43;;;;;;;2.28;0.50;;;6.80;52.50;;;;;;5033901;28;20028;-73
2021/03/14 12:11:09;;;;;;;2.88;0.98;;;6.60;54.30;;;;;;5041820;28;20079;-72
2021/03/14 12:13:35;;;;;;;2.85;0.80;;;6.40;55.20;;;;;;5053620;28;20021;-72
2021/03/14 12:16:01;;;;;;;2.58;0.90;;;6.50;54.70;;;;;;5035876;28;20024;-73
2021/03/14 12:18:27;;;;;;;2.90;0.80;;;6.70;55.20;;;;;;5035370;28;20041;-72
2021/03/14 12:20:53;;;;;;;4.45;0.82;;;6.80;55.10;;;;;;5053553;28;20025;-74
2021/03/14 12:23:19;;;;;;;1.85;0.88;;;6.80;55.20;;;;;;5053462;28;20032;-74
2021/03/14 12:25:44;;;;;;;3.50;0.90;;;6.80;54.90;;;;;;5053242;28;20040;-74
2021/03/14 12:28:10;;;;;;;2.10;0.50;;;7.00;54.30;;;;;;5053210;28;20098;-73
2021/03/14 12:30:36;;;;;;;5.88;0.77;;;6.70;54.90;;;;;;5053365;28;20040;-73
2021/03/14 12:33:01;;;;;;;3.75;0.75;;;6.50;55.00;;;;;;5053380;28;20025;-73
2021/03/14 12:35:27;;;;;;;4.47;0.90;;;6.50;55.30;;;;;;5053302;28;20359;-71
2021/03/14 12:37:53;;;;;;;4.47;0.47;;;6.50;54.80;;;;;;5053126;28;20040;-73
2021/03/14 12:40:19;;;;;;;6.90;0.90;;;6.30;55.60;;;;;;5053113;28;20355;-73
2021/03/14 12:42:45;;;;;;;1.83;0.60;;;5.90;58.00;;;;;;5053293;28;20371;-76
2021/03/14 12:45:11;;;;;;;1.40;0.68;;;5.90;60.30;;;;;;5053062;28;20024;-74
2021/03/14 12:47:37;;;;;;;3.45;0.85;;;6.00;61.60;;;;;;5053201;28;20454;-74
2021/03/14 12:50:06;;;;;;;7.82;0.90;;;6.00;63.30;;;;;;5053053;28;20088;-75
2021/03/14 12:52:33;;;;;;;1.95;0.43;;;5.90;66.00;;;;;;5053177;28;20032;-75
2021/03/14 12:54:58;;;;;;;1.67;0.50;;;6.00;65.80;;;;;;5053081;28;20027;-75
2021/03/14 12:57:24;;;;;;;0.68;0.20;;;6.00;64.90;;;;;;5052803;28;20392;-74
2021/03/14 12:59:49;;;;;;;2.28;0.60;;;5.90;65.30;;;;;;5052806;28;20549;-74
2021/03/14 13:02:15;;;;;;;1.02;0.30;;;6.10;64.70;;;;;;5052842;28;20024;-74
2021/03/14 13:04:40;;;;;;;2.03;0.47;;;5.70;64.90;;;;;;5035143;28;20025;-74
2021/03/14 13:07:06;;;;;;;4.75;0.77;;;5.70;65.10;;;;;;5035120;28;20466;-75
2021/03/14 13:09:32;;;;;;;1.50;0.35;;;5.60;65.70;;;;;;5052764;28;20421;-74
2021/03/14 13:12:00;;;;;;;0.20;0.20;;;5.60;66.40;;;;;;5052694;28;20029;-75